Terminal Aerodrome Forecast
Issued by NWS Honolulu, HI

Home | Current Version | Previous Version | Text Only | Print | Product List | Glossary On
Versions: 1 2 3 4 5 6 7 8 9 10 11 12 13 14 15 16 17 18 19 20 21 22
000
FTPA31 PHFO 232059 AAA
TAFHNL
TAF AMD
PHNL 232059Z 2321/2424 03012G22KT P6SM VCSH FEW025 BKN035
      TEMPO 2322/2402 5SM RA BR BKN025
     FM240200 02019G27KT 6SM -SHRA SCT025 BKN035
     FM241500 02025G30KT 6SM -SHRA SCT025 BKN035=

USA.gov is the U.S. government's official web portal to all federal, state and local government web resources and services.